Archival Weather

Sydney Intl

Sydney, Australia (YSSY)

Report from: Sunday, March 19, 2023 9:00 AM AEDT
Current time: Saturday, June 22, 2024 9:14 AM AEST

Current weather – Weather history – Daily summaries
Weather forecast

Present weatherFog patches, mist, TO
Temperature23.0°C (73.4°F)
Dew point21.0°C (69.8°F)
Winds 7 kts (3.6 m/s, 8.1 mph) North-Northwest (330°)
Visibility3.1 mi. (5 km)
Clouds Scattered clouds 300 ft. (91 m)
Altimeter30.06 in.Hg (1018 mB)
Relative humidity89 %
Density altitude1,106 ft. (337 m)
Remarks Special weather observation
Flight conditions Marginal Visual Meteorological Conditions
Raw dataSPAU31 KWBC 182228 SPECI YSSY 182200Z 33007KT 5000 BCFG BR SCT003 23/21 Q1018 RF00/0/000/0 VIS REDUCED TO NORTH
An error has occurred. This application may no longer respond until reloaded. Reload 🗙